Time;durP1;ratioP1;P1;durP2;ratioP2;P2;SDS_P1;SDS_P2;PMS_P1;PMS_P2;Temp;Humidity;BMP_temperature;BMP_pressure;BME280_temperature;BME280_humidity;BME280_pressure;Samples;Min_cycle;Max_cycle;Signal;HPM_P1;HPM_P2
2022/06/25 00:02:25;;;;;;;5.57;4.93;;;19.80;99.90;;;-141.84;86.30;19419.59;5053818;28;20280;-58
2022/06/25 00:07:40;;;;;;;5.15;4.70;;;19.80;99.90;;;-141.84;87.90;19374.88;5054684;28;20280;-59
2022/06/25 00:10:09;;;;;;;5.72;5.22;;;19.70;99.90;;;-141.84;88.27;19350.50;5062949;28;20217;-60
2022/06/25 00:12:36;;;;;;;5.60;5.07;;;19.70;99.90;;;-141.84;88.06;19393.16;5073992;28;20255;-59
2022/06/25 00:15:07;;;;;;;5.72;5.13;;;19.60;99.90;;;-141.84;86.56;19458.19;5073502;28;20225;-59
2022/06/25 00:17:36;;;;;;;5.43;4.93;;;19.70;99.90;;;-141.84;86.08;19419.59;5073515;28;20323;-60
2022/06/25 00:20:08;;;;;;;5.57;5.07;;;19.80;99.90;;;-141.84;86.65;19346.44;5073834;28;20224;-60
2022/06/25 00:22:37;;;;;;;5.07;4.68;;;19.80;99.90;;;-141.84;87.63;19425.69;5066988;28;20632;-61
2022/06/25 00:25:06;;;;;;;4.97;4.55;;;19.70;99.90;;;-141.84;88.33;19328.13;5065534;28;20700;-59
2022/06/25 00:27:34;;;;;;;5.13;4.63;;;19.60;99.90;;;-141.84;88.63;19362.69;5073448;28;20224;-60
2022/06/25 00:30:04;;;;;;;5.20;4.80;;;19.60;99.90;;;-141.84;88.56;19336.25;5073380;28;20216;-60
2022/06/25 00:32:34;;;;;;;5.47;4.63;;;19.60;99.90;;;-141.84;88.52;19313.91;5072192;28;20311;-59
2022/06/25 00:35:06;;;;;;;5.35;4.68;;;19.60;99.90;;;-141.84;88.50;19348.47;5073226;28;20738;-60
2022/06/25 00:37:34;;;;;;;5.95;4.70;;;19.60;99.90;;;-141.84;88.68;19322.03;5073788;28;20750;-60
2022/06/25 00:40:04;;;;;;;7.25;5.63;;;19.60;99.90;;;-141.84;88.86;19309.84;5066449;28;20693;-60
2022/06/25 00:42:32;;;;;;;7.05;5.40;;;19.60;99.90;;;-141.84;88.82;19236.69;5052592;28;20217;-59
2022/06/25 00:45:00;;;;;;;5.60;4.22;;;19.60;99.90;;;-141.84;88.67;19232.63;5059808;28;20235;-60
2022/06/25 00:47:29;;;;;;;5.38;4.88;;;19.60;99.90;;;-141.84;88.97;19192.00;5066496;28;20235;-59
2022/06/25 00:49:57;;;;;;;5.55;5.05;;;19.60;99.90;;;-141.84;88.88;19194.03;5062334;28;20603;-60
2022/06/25 00:52:32;;;;;;;5.22;4.78;;;19.60;99.90;;;-141.84;89.01;19192.00;5073883;28;20201;-60
2022/06/25 00:55:09;;;;;;;5.68;5.18;;;19.60;99.90;;;-141.84;88.40;19159.47;5072299;28;20212;-59
2022/06/25 00:57:42;;;;;;;6.15;4.47;;;19.60;99.90;;;-141.84;88.06;19200.13;5072821;28;20263;-59
2022/06/25 01:00:15;;;;;;;7.65;5.78;;;19.60;99.90;;;-141.84;88.17;19165.56;5072945;28;20308;-58
2022/06/25 01:02:44;;;;;;;7.55;5.90;;;19.60;99.90;;;-141.84;87.74;19204.19;5072501;28;20893;-58
2022/06/25 01:05:15;;;;;;;6.55;5.95;;;19.70;99.90;;;-141.84;87.28;19210.28;5072105;28;20252;-60
2022/06/25 01:07:49;;;;;;;6.60;6.00;;;19.70;99.90;;;-141.84;88.12;19145.25;5073123;28;20185;-60
2022/06/25 01:10:18;;;;;;;6.63;6.07;;;19.60;99.90;;;-141.84;88.86;19108.69;5073252;28;20287;-61
2022/06/25 01:12:46;;;;;;;7.20;6.43;;;19.60;99.90;;;-141.84;89.07;19122.91;5072431;28;20720;-60
2022/06/25 01:15:17;;;;;;;6.95;6.20;;;19.60;99.90;;;-141.84;87.40;19200.13;5079198;28;20311;-60
2022/06/25 01:17:47;;;;;;;6.90;6.20;;;19.60;99.90;;;-141.84;88.30;19126.97;5092602;28;20227;-59
2022/06/25 01:20:17;;;;;;;9.55;6.40;;;19.60;99.90;;;-141.84;88.25;19126.97;5092551;28;20727;-60
2022/06/25 01:22:47;;;;;;;6.80;6.10;;;19.50;99.90;;;-141.84;87.65;19155.41;5067507;28;20301;-59
2022/06/25 01:25:16;;;;;;;7.10;6.22;;;19.50;99.90;;;-141.84;89.15;19082.25;5053240;28;20277;-60
2022/06/25 01:27:45;;;;;;;8.25;6.28;;;19.50;99.90;;;-141.84;88.95;19100.53;5061480;28;20379;-60
2022/06/25 01:30:15;;;;;;;7.18;6.10;;;19.50;99.90;;;-141.84;88.65;19104.59;5072317;28;20254;-59
2022/06/25 01:32:43;;;;;;;8.07;6.72;;;19.50;99.90;;;-141.84;88.22;19122.91;5071242;28;20221;-60
2022/06/25 01:35:11;;;;;;;6.93;5.95;;;19.50;99.90;;;-141.84;89.09;19078.19;5072620;28;20224;-61
2022/06/25 01:37:39;;;;;;;7.60;6.57;;;19.50;99.90;;;-141.84;88.97;19078.19;5071975;28;20288;-59
2022/06/25 01:40:10;;;;;;;7.55;6.65;;;19.50;99.90;;;-141.84;89.04;19076.16;5072283;28;20603;-59
2022/06/25 01:45:24;;;;;;;8.68;7.00;;;19.50;99.90;;;-141.84;89.28;19055.84;5072211;28;20232;-61
2022/06/25 01:47:52;;;;;;;7.70;7.00;;;19.50;99.90;;;-141.84;89.06;19021.31;5070511;28;20632;-59
2022/06/25 01:50:22;;;;;;;7.50;6.57;;;19.50;99.90;;;-141.84;89.64;19035.53;5071760;28;20606;-60
2022/06/25 01:52:51;;;;;;;8.80;6.97;;;19.50;99.90;;;-141.84;88.81;19053.81;5072051;28;20197;-61
2022/06/25 01:55:21;;;;;;;9.45;6.63;;;19.60;99.90;;;-141.84;89.53;19039.59;5072257;28;20300;-59
2022/06/25 01:57:50;;;;;;;8.30;6.85;;;19.50;99.90;;;-141.84;90.43;18990.81;5070857;28;20315;-60
2022/06/25 02:00:23;;;;;;;6.95;6.20;;;19.50;99.90;;;-141.84;90.02;18962.38;5071823;28;20224;-60
2022/06/25 02:02:54;;;;;;;7.22;6.53;;;19.50;99.90;;;-141.84;90.13;18948.16;5071305;28;20236;-59
2022/06/25 02:08:09;;;;;;;8.48;6.50;;;19.50;99.90;;;-141.84;90.21;18925.81;5070699;28;20228;-60
2022/06/25 02:10:38;;;;;;;7.55;6.18;;;19.40;99.90;;;-141.84;91.04;18885.16;5071051;28;20193;-60
2022/06/25 02:13:07;;;;;;;9.07;5.93;;;19.40;99.90;;;-141.84;91.76;18838.44;5090963;28;20220;-60
2022/06/25 02:15:35;;;;;;;8.43;5.82;;;19.30;99.90;;;-141.84;92.03;18803.88;5091689;28;20231;-60
2022/06/25 02:18:04;;;;;;;5.82;5.22;;;19.30;99.90;;;-141.84;91.86;18805.91;5081862;28;20304;-59
2022/06/25 02:20:33;;;;;;;6.13;5.60;;;19.20;99.90;;;-141.84;92.28;18724.66;5071386;28;20764;-59
2022/06/25 02:23:01;;;;;;;6.28;5.32;;;19.20;99.90;;;-141.84;91.14;18789.66;5060402;28;20228;-60
2022/06/25 02:25:29;;;;;;;6.78;5.80;;;19.20;99.90;;;-141.84;91.46;18761.22;5052545;28;20212;-60
2022/06/25 02:27:59;;;;;;;5.90;5.20;;;19.20;99.90;;;-141.84;90.73;18805.91;5050941;28;20312;-59
2022/06/25 02:30:27;;;;;;;10.10;5.60;;;19.30;99.90;;;-141.84;90.32;18809.97;5051548;28;20262;-60
2022/06/25 02:32:55;;;;;;;6.13;5.05;;;19.40;99.90;;;-141.84;89.86;18834.38;5050474;28;20716;-61
2022/06/25 02:35:23;;;;;;;7.40;5.10;;;19.40;99.90;;;-141.84;89.29;18826.25;5071048;28;20311;-60
2022/06/25 02:37:52;;;;;;;5.15;4.65;;;19.50;99.90;;;-141.84;87.95;18938.00;5054217;28;20292;-60
2022/06/25 02:40:20;;;;;;;6.45;5.10;;;19.50;99.90;;;-141.84;87.83;18996.91;5062309;28;20200;-61
2022/06/25 02:42:49;;;;;;;6.25;4.30;;;19.60;99.90;;;-141.84;87.97;18917.66;5064345;28;20255;-59
2022/06/25 02:45:18;;;;;;;7.55;5.15;;;19.60;99.90;;;-141.84;87.44;18984.72;5061138;28;20712;-59
2022/06/25 02:47:46;;;;;;;5.22;4.80;;;19.60;99.90;;;-141.84;87.53;18948.16;5070413;28;20236;-59
2022/06/25 02:50:15;;;;;;;6.78;4.90;;;19.60;99.90;;;-141.84;87.53;18940.03;5071156;28;20239;-59
2022/06/25 02:52:43;;;;;;;6.20;4.38;;;19.70;99.90;;;-141.84;86.48;18984.72;5070075;28;20215;-60
2022/06/25 02:55:11;;;;;;;6.60;4.40;;;19.70;99.90;;;-141.84;86.22;19035.53;5071997;28;20200;-59
2022/06/25 03:00:26;;;;;;;8.80;4.55;;;19.80;99.90;;;-141.84;86.07;19043.66;5070538;28;20665;-59
2022/06/25 03:02:54;;;;;;;5.78;4.18;;;19.80;99.90;;;-141.84;87.38;18990.81;5070375;28;20365;-59
2022/06/25 03:05:22;;;;;;;9.75;4.47;;;19.70;99.90;;;-141.84;86.34;19021.31;5071271;28;20304;-60
2022/06/25 03:07:50;;;;;;;6.55;4.93;;;19.80;99.90;;;-141.84;86.59;18994.88;5077443;28;20214;-60
2022/06/25 03:10:19;;;;;;;7.53;4.03;;;19.80;99.90;;;-141.84;86.69;19025.38;5080997;28;20316;-60
2022/06/25 03:12:47;;;;;;;5.25;4.32;;;19.80;99.90;;;-141.84;87.97;18948.16;5070297;28;20224;-60
2022/06/25 03:15:15;;;;;;;7.72;4.10;;;19.70;99.90;;;-141.84;88.63;18852.66;5071168;28;20228;-59
2022/06/25 03:17:44;;;;;;;5.50;4.05;;;19.70;99.90;;;-141.84;88.20;18899.38;5070497;28;20303;-59
2022/06/25 03:20:12;;;;;;;8.25;4.40;;;19.60;99.90;;;-141.84;87.03;18962.38;5070773;28;20358;-59
2022/06/25 03:22:40;;;;;;;6.22;4.15;;;19.70;99.90;;;-141.84;86.93;18978.63;5062988;28;20231;-60
2022/06/25 03:25:09;;;;;;;5.20;3.95;;;19.70;99.90;;;-141.84;87.43;18933.94;5058324;28;20216;-59
2022/06/25 03:27:37;;;;;;;6.70;4.78;;;19.70;99.90;;;-141.84;87.11;18935.97;5071715;28;20319;-60
2022/06/25 03:30:07;;;;;;;4.32;3.90;;;19.80;99.90;;;-141.84;86.75;18944.09;5074303;28;20666;-60
2022/06/25 03:32:35;;;;;;;4.40;3.78;;;19.70;99.90;;;-141.84;87.21;18940.03;5074422;28;20605;-59
2022/06/25 03:35:06;;;;;;;4.97;4.20;;;19.80;99.90;;;-141.84;86.37;18950.19;5074783;28;20696;-59
2022/06/25 03:37:35;;;;;;;5.43;3.97;;;19.80;99.90;;;-141.84;85.86;19009.09;5074851;28;20673;-61
2022/06/25 03:40:04;;;;;;;5.88;4.05;;;19.90;99.90;;;-141.84;84.76;19066.00;5074680;28;20224;-60
2022/06/25 03:42:32;;;;;;;8.57;4.38;;;19.90;99.90;;;-141.84;83.42;19141.19;5073997;28;20312;-60
2022/06/25 03:45:01;;;;;;;8.88;4.20;;;20.00;99.90;;;-141.84;84.23;19124.94;5074380;28;20217;-60
2022/06/25 03:47:29;;;;;;;4.35;3.85;;;20.00;99.90;;;-141.84;85.04;19059.91;5074269;28;20228;-60
2022/06/25 03:49:57;;;;;;;6.18;3.85;;;20.00;99.90;;;-141.84;84.32;19110.72;5074523;28;20560;-60
2022/06/25 03:52:27;;;;;;;4.15;3.72;;;20.10;99.90;;;-141.84;83.95;19088.34;5073716;28;20228;-60
2022/06/25 03:54:55;;;;;;;4.15;3.75;;;20.10;99.90;;;-141.84;83.93;19124.94;5074010;28;20303;-60
2022/06/25 03:57:24;;;;;;;4.53;4.00;;;20.10;99.90;;;-141.84;83.74;19155.41;5074130;28;20224;-60
2022/06/25 03:59:53;;;;;;;5.75;4.40;;;20.10;99.90;;;-141.84;82.92;19204.19;5073740;28;20331;-60
2022/06/25 04:02:21;;;;;;;6.45;3.90;;;20.20;99.90;;;-141.84;83.96;19155.41;5073558;28;20224;-60
2022/06/25 04:04:49;;;;;;;6.53;3.90;;;20.20;99.90;;;-141.84;85.02;19137.13;5087112;28;20650;-61
2022/06/25 04:07:17;;;;;;;7.53;4.00;;;20.20;99.90;;;-141.84;84.74;19094.44;5095152;28;20223;-59
2022/06/25 04:09:47;;;;;;;8.48;4.55;;;20.20;99.90;;;-141.84;85.62;19092.41;5083382;28;20673;-60
2022/06/25 04:12:15;;;;;;;4.90;4.28;;;20.20;99.90;;;-141.84;85.10;19104.59;5053427;28;20720;-59
2022/06/25 04:14:43;;;;;;;4.30;3.85;;;20.20;99.90;;;-141.84;86.37;19055.84;5053174;28;20759;-59
2022/06/25 04:17:12;;;;;;;6.18;4.68;;;20.30;99.90;;;-141.84;85.52;19090.38;5054216;28;20239;-60
2022/06/25 04:19:41;;;;;;;5.10;4.15;;;20.30;99.90;;;-141.84;84.29;19120.88;5054248;28;20292;-59
2022/06/25 04:22:11;;;;;;;5.32;4.45;;;20.40;99.90;;;-141.84;82.67;19210.28;5057447;28;20287;-59
2022/06/25 04:24:42;;;;;;;4.50;4.00;;;20.40;99.90;;;-141.84;83.11;19145.25;5073436;28;20252;-60
2022/06/25 04:29:03;;;;;;;5.95;4.07;;;20.50;99.90;;;-141.84;82.73;19212.31;5065508;28;20241;-59
2022/06/25 04:29:59;;;;;;;4.30;3.90;;;20.50;99.90;;;-141.84;81.07;19291.56;5063998;28;20304;-60
2022/06/25 04:32:29;;;;;;;4.22;3.67;;;20.60;99.90;;;-141.84;81.03;19275.31;5053220;28;20932;-60
2022/06/25 04:34:57;;;;;;;7.47;4.30;;;20.70;99.90;;;-141.84;80.67;19263.09;5053290;28;20685;-60
2022/06/25 04:37:25;;;;;;;4.60;4.00;;;20.80;99.90;;;-141.84;79.35;19326.09;5057897;28;20198;-59
2022/06/25 04:39:54;;;;;;;8.27;4.07;;;20.80;99.90;;;-141.84;78.92;19411.44;5066806;28;20250;-59
2022/06/25 04:42:23;;;;;;;5.28;3.78;;;20.80;99.90;;;-141.84;78.52;19334.22;5072899;28;20727;-59
2022/06/25 04:44:51;;;;;;;5.18;4.10;;;20.80;99.90;;;-141.84;77.65;19368.78;5057939;28;20224;-59
2022/06/25 04:47:19;;;;;;;4.63;3.90;;;20.90;99.90;;;-141.84;77.87;19389.09;5073651;28;20224;-61
2022/06/25 04:49:47;;;;;;;4.53;3.72;;;20.80;99.90;;;-141.84;78.52;19401.28;5054298;28;20202;-61
2022/06/25 04:52:16;;;;;;;6.43;4.63;;;20.90;99.90;;;-141.84;76.58;19431.78;5053725;28;20201;-60
2022/06/25 04:54:44;;;;;;;6.90;4.63;;;21.00;99.90;;;-141.84;77.37;19380.97;5052879;28;20316;-59
2022/06/25 04:57:15;;;;;;;6.30;4.57;;;20.80;99.90;;;-141.84;79.19;19389.09;5052926;28;20229;-59
2022/06/25 04:59:45;;;;;;;6.95;4.15;;;20.80;99.90;;;-141.84;78.40;19383.00;5057579;28;20231;-60
2022/06/25 05:02:13;;;;;;;6.45;4.50;;;20.70;99.90;;;-141.84;77.18;19403.31;5092865;28;20252;-59
2022/06/25 05:04:41;;;;;;;6.03;4.38;;;20.70;99.90;;;-141.84;77.99;19391.13;5054256;28;20228;-59
2022/06/25 05:07:09;;;;;;;5.90;3.90;;;20.70;99.90;;;-141.84;77.71;19407.38;5053306;28;20224;-60
2022/06/25 05:09:37;;;;;;;4.68;4.20;;;20.60;99.90;;;-141.84;77.83;19374.88;5056931;28;20717;-60
2022/06/25 05:12:07;;;;;;;4.97;3.55;;;20.50;99.90;;;-141.84;78.98;19364.72;5072376;28;20255;-59
2022/06/25 05:14:35;;;;;;;7.22;4.20;;;20.40;99.90;;;-141.84;78.06;19407.38;5069704;28;20304;-59
2022/06/25 05:17:05;;;;;;;5.72;3.53;;;20.40;99.90;;;-141.84;78.07;19356.59;5073002;28;20279;-60
2022/06/25 05:19:33;;;;;;;4.15;3.65;;;20.40;99.90;;;-141.84;76.97;19401.28;5072754;28;20706;-59
2022/06/25 05:22:01;;;;;;;4.25;3.88;;;20.40;99.90;;;-141.84;77.23;19417.56;5072237;28;20232;-59
2022/06/25 05:24:29;;;;;;;5.20;3.65;;;20.50;99.90;;;-141.84;77.27;19370.81;5072137;28;20415;-59
2022/06/25 05:26:57;;;;;;;3.75;3.22;;;20.50;99.90;;;-141.84;77.42;19372.84;5072623;28;20320;-59
2022/06/25 05:29:26;;;;;;;6.10;3.63;;;20.50;99.90;;;-141.84;75.82;19425.69;5071718;28;20248;-61
2022/06/25 05:31:59;;;;;;;3.40;3.10;;;20.50;99.90;;;-141.84;75.38;19427.72;5071748;28;20285;-59
2022/06/25 05:34:29;;;;;;;5.00;3.22;;;20.60;99.90;;;-141.84;76.43;19429.75;5072179;28;20564;-60
2022/06/25 05:36:57;;;;;;;7.00;3.50;;;20.60;99.90;;;-141.84;72.73;19537.44;5071815;28;20715;-59
2022/06/25 05:39:26;;;;;;;4.10;2.90;;;20.80;99.90;;;-141.84;73.80;19482.56;5071449;28;20318;-59
2022/06/25 05:41:54;;;;;;;3.78;2.90;;;20.90;99.90;;;-141.84;73.13;19509.00;5060254;28;20320;-59
2022/06/25 05:44:22;;;;;;;4.65;3.22;;;20.90;99.90;;;-141.84;74.31;19496.81;5050985;28;20261;-60
2022/06/25 05:46:50;;;;;;;6.03;3.30;;;20.80;99.90;;;-141.84;73.93;19502.91;5070343;28;20207;-60
2022/06/25 05:49:18;;;;;;;3.65;3.13;;;20.70;99.90;;;-141.84;73.94;19519.16;5070682;28;20197;-60
2022/06/25 05:51:48;;;;;;;7.68;3.17;;;20.90;99.90;;;-141.84;73.93;19480.53;5071365;28;20224;-60
2022/06/25 05:54:16;;;;;;;3.67;2.70;;;20.80;99.90;;;-141.84;74.08;19500.88;5071302;28;20266;-59
2022/06/25 05:56:44;;;;;;;3.72;2.60;;;20.80;99.90;;;-141.84;73.03;19557.78;5080199;28;20246;-60
2022/06/25 05:59:13;;;;;;;5.93;3.38;;;20.90;99.90;;;-141.84;72.94;19529.31;5091717;28;20298;-62
2022/06/25 06:01:41;;;;;;;6.70;3.10;;;20.90;99.90;;;-141.84;72.96;19531.34;5092395;28;20210;-59
2022/06/25 06:04:09;;;;;;;3.33;2.70;;;20.80;99.90;;;-141.84;71.90;19590.28;5091872;28;20231;-59
2022/06/25 06:06:37;;;;;;;3.22;2.70;;;20.90;99.90;;;-141.84;71.72;19565.91;5091649;28;20232;-61
2022/06/25 06:09:12;;;;;;;4.07;2.65;;;20.90;99.90;;;-141.84;73.02;19545.56;5090959;28;20224;-60
2022/06/25 06:11:40;;;;;;;6.32;3.13;;;20.90;99.90;;;-141.84;72.91;19557.78;5070983;28;20739;-60
2022/06/25 06:14:08;;;;;;;4.38;2.70;;;20.90;99.90;;;-141.84;72.73;19537.44;5071034;28;20687;-59
2022/06/25 06:16:36;;;;;;;5.10;2.90;;;20.90;99.90;;;-141.84;73.53;19527.28;5054637;28;20548;-59
2022/06/25 06:19:04;;;;;;;6.13;2.70;;;20.90;99.90;;;-141.84;73.25;19531.34;5051502;28;20233;-60
2022/06/25 06:21:32;;;;;;;2.58;2.38;;;20.90;99.90;;;-141.84;72.52;19545.56;5051135;28;20704;-60
2022/06/25 06:24:00;;;;;;;4.53;2.60;;;21.00;99.90;;;-141.84;71.53;19602.47;5070003;28;20237;-59
2022/06/25 06:26:29;;;;;;;3.30;2.28;;;21.10;99.90;;;-141.84;71.57;19580.13;5070990;28;20228;-60
2022/06/25 06:28:57;;;;;;;2.95;2.67;;;21.10;99.90;;;-141.84;71.13;19632.97;5070939;28;20203;-60
2022/06/25 06:31:26;;;;;;;5.53;3.10;;;21.30;99.90;;;-141.84;70.46;19643.13;5071522;28;20291;-59
2022/06/25 06:33:54;;;;;;;3.88;2.90;;;21.30;99.90;;;-141.84;70.29;19667.50;5070629;28;20233;-60
2022/06/25 06:36:22;;;;;;;3.10;2.80;;;21.40;99.90;;;-141.84;70.67;19618.75;5070916;28;20315;-60
2022/06/25 06:38:50;;;;;;;4.90;2.80;;;21.40;99.90;;;-141.84;70.59;19632.97;5071146;28;20224;-60
2022/06/25 06:41:18;;;;;;;3.13;2.83;;;21.40;99.90;;;-141.84;69.64;19695.97;5070918;28;20230;-60
2022/06/25 06:43:48;;;;;;;3.47;2.70;;;21.60;99.90;;;-141.84;69.50;19669.53;5070639;28;20237;-61
2022/06/25 06:46:16;;;;;;;3.80;2.67;;;21.60;99.90;;;-141.84;67.61;19756.94;5071360;28;20189;-59
2022/06/25 06:48:44;;;;;;;3.00;2.70;;;21.80;99.90;;;-141.84;68.45;19738.66;5070990;28;20234;-60
2022/06/25 06:51:12;;;;;;;2.70;2.50;;;21.90;99.90;;;-141.84;67.76;19777.25;5070709;28;20224;-60
2022/06/25 06:53:41;;;;;;;2.80;2.58;;;22.00;99.90;;;-141.84;66.84;19809.78;5085190;28;20330;-60
2022/06/25 06:56:09;;;;;;;3.65;2.90;;;22.20;99.90;;;-141.84;66.19;19813.84;5091066;28;20223;-59
2022/06/25 06:58:38;;;;;;;3.15;2.45;;;22.50;99.90;;;-141.84;66.06;19848.38;5091401;28;20207;-60
2022/06/25 07:01:07;;;;;;;3.35;2.45;;;22.70;99.90;;;-141.84;65.84;19899.19;5082551;28;20225;-60
2022/06/25 07:03:36;;;;;;;3.00;2.70;;;22.90;99.90;;;-141.84;62.65;20008.94;5063136;28;20307;-60
2022/06/25 07:06:04;;;;;;;2.72;2.30;;;23.20;99.90;;;-141.84;61.96;20049.59;5059209;28;20231;-59
2022/06/25 07:08:32;;;;;;;3.40;2.65;;;23.40;99.90;;;-141.84;62.24;20033.34;5070917;28;20232;-59
2022/06/25 07:11:00;;;;;;;2.47;2.28;;;23.60;99.90;;;-141.84;61.31;20094.31;5070681;28;20227;-60
2022/06/25 07:13:28;;;;;;;3.13;2.88;;;23.80;99.90;;;-141.84;60.18;20078.06;5070417;28;20213;-59
2022/06/25 07:15:56;;;;;;;3.03;2.70;;;23.90;99.90;;;-141.84;59.95;20149.19;5069941;28;20229;-60
2022/06/25 07:18:26;;;;;;;3.58;3.28;;;24.00;99.90;;;-141.84;60.04;20145.13;5070513;28;20229;-60
2022/06/25 07:20:54;;;;;;;3.78;3.45;;;24.00;99.90;;;-141.84;60.66;20130.91;5070512;28;20232;-59
2022/06/25 07:23:22;;;;;;;6.03;4.03;;;23.90;99.90;;;-141.84;60.93;20094.31;5069652;28;20236;-61
2022/06/25 07:25:50;;;;;;;5.03;4.63;;;23.90;99.90;;;-141.84;60.53;20141.06;5070216;28;20220;-60
2022/06/25 07:28:18;;;;;;;4.00;3.70;;;23.90;99.90;;;-141.84;61.36;20098.38;5070421;28;20635;-60
2022/06/25 07:30:46;;;;;;;7.15;4.57;;;23.80;99.90;;;-141.84;60.94;20124.81;5069453;28;20228;-59
2022/06/25 07:33:14;;;;;;;4.43;3.97;;;24.00;99.90;;;-141.84;60.75;20134.97;5070152;28;20227;-59
2022/06/25 07:35:43;;;;;;;4.32;3.92;;;24.10;99.90;;;-141.84;60.44;20159.34;5070170;28;20311;-60
2022/06/25 07:38:11;;;;;;;4.57;4.05;;;24.30;99.90;;;-141.84;59.70;20187.81;5058603;28;20311;-60
2022/06/25 07:40:39;;;;;;;4.53;4.07;;;24.40;99.90;;;-141.84;58.30;20254.88;5064026;28;20300;-61
2022/06/25 07:43:08;;;;;;;4.38;3.97;;;24.60;99.90;;;-141.84;58.74;20256.91;5068754;28;20224;-61
2022/06/25 07:45:36;;;;;;;4.78;4.35;;;24.60;99.90;;;-141.84;57.81;20269.13;5061134;28;20228;-58
2022/06/25 07:48:09;;;;;;;4.63;4.18;;;24.60;99.90;;;-141.84;58.35;20242.69;5070411;28;20229;-62
2022/06/25 07:53:24;;;;;;;4.50;4.10;;;24.70;99.90;;;-141.84;56.87;20309.75;5057459;28;20279;-60
2022/06/25 07:55:53;;;;;;;4.18;3.78;;;24.80;99.90;;;-141.84;57.17;20279.28;5050189;28;20204;-60
2022/06/25 07:58:23;;;;;;;4.10;3.80;;;24.70;99.90;;;-141.84;56.70;20313.84;5050183;28;20691;-59
2022/06/25 08:00:51;;;;;;;5.18;4.60;;;24.90;99.90;;;-141.84;55.35;20384.97;5049961;28;20243;-60
2022/06/25 08:03:19;;;;;;;4.90;4.50;;;25.00;99.90;;;-141.84;54.97;20423.59;5049618;28;20229;-60
2022/06/25 08:05:48;;;;;;;6.07;4.60;;;25.20;99.90;;;-141.84;54.59;20433.75;5049619;28;20243;-61
2022/06/25 08:08:16;;;;;;;4.85;4.07;;;25.30;99.90;;;-141.84;54.87;20433.75;5056008;28;20224;-60
2022/06/25 08:10:46;;;;;;;4.57;4.15;;;25.30;99.90;;;-141.84;54.17;20443.91;5070026;28;20200;-60
2022/06/25 08:13:20;;;;;;;4.40;4.00;;;25.40;99.90;;;-141.84;53.52;20474.41;5069617;28;20517;-60
2022/06/25 08:15:49;;;;;;;4.18;3.85;;;25.40;99.90;;;-141.84;54.27;20492.72;5073504;28;20231;-61
2022/06/25 08:18:17;;;;;;;5.35;4.70;;;25.40;99.90;;;-141.84;52.54;20521.16;5066360;28;20225;-61
2022/06/25 08:20:46;;;;;;;4.35;4.05;;;25.50;99.90;;;-141.84;53.63;20492.72;5057896;28;20225;-59
2022/06/25 08:23:14;;;;;;;4.40;4.00;;;25.50;99.90;;;-141.84;51.82;20604.50;5065262;28;20251;-61
2022/06/25 08:25:42;;;;;;;4.55;4.13;;;25.80;99.90;;;-141.84;51.85;20622.81;5066147;28;20227;-60
2022/06/25 08:28:11;;;;;;;4.75;4.35;;;25.80;99.90;;;-141.84;50.62;20596.38;5064911;28;20311;-60
2022/06/25 08:30:42;;;;;;;4.65;4.25;;;25.80;99.90;;;-141.84;49.88;20712.25;5069200;28;20228;-59
2022/06/25 08:33:10;;;;;;;4.20;3.90;;;26.00;99.90;;;-141.84;49.83;20724.44;5072231;28;20267;-59
2022/06/25 08:35:38;;;;;;;5.10;4.28;;;26.10;99.90;;;-141.84;49.76;20740.69;5073322;28;20264;-60
2022/06/25 08:38:07;;;;;;;4.90;4.50;;;26.30;99.90;;;-141.84;50.52;20610.59;5073211;28;20227;-60
2022/06/25 08:40:35;;;;;;;3.78;3.47;;;26.10;99.90;;;-141.84;50.00;20598.41;5072741;28;20668;-60
2022/06/25 08:43:10;;;;;;;5.07;4.68;;;26.00;99.90;;;-141.84;49.71;20693.94;5073046;28;20212;-60
2022/06/25 08:45:39;;;;;;;5.00;3.95;;;26.00;99.90;;;-141.84;50.10;20693.94;5080192;28;20623;-59
2022/06/25 08:48:16;;;;;;;5.32;4.93;;;26.20;99.90;;;-141.84;48.73;20801.69;5072573;28;20256;-60
2022/06/25 08:50:45;;;;;;;4.38;3.90;;;26.30;99.90;;;-141.84;49.80;20748.84;5073581;28;20220;-60
2022/06/25 08:53:14;;;;;;;4.45;4.05;;;26.40;99.90;;;-141.84;49.83;20687.84;5071834;28;20217;-60
2022/06/25 08:55:44;;;;;;;4.88;4.38;;;26.30;99.90;;;-141.84;49.91;20714.28;5073094;28;20193;-60
2022/06/25 08:58:15;;;;;;;4.75;4.35;;;26.20;99.90;;;-141.84;48.50;20732.56;5072955;28;20197;-59
2022/06/25 09:00:46;;;;;;;5.35;4.20;;;26.10;99.90;;;-141.84;48.39;20691.91;5071734;28;20603;-59
2022/06/25 09:03:14;;;;;;;4.30;3.90;;;26.00;99.90;;;-141.84;48.59;20756.97;5071909;28;20278;-60
2022/06/25 09:05:44;;;;;;;4.60;4.30;;;26.10;99.90;;;-141.84;48.73;20754.94;5071373;28;20228;-59
2022/06/25 09:08:16;;;;;;;4.88;4.45;;;26.10;99.90;;;-141.84;48.91;20732.56;5072317;28;20231;-60
2022/06/25 09:10:47;;;;;;;4.30;3.90;;;26.10;99.90;;;-141.84;48.96;20752.91;5072343;28;20599;-59
2022/06/25 09:13:16;;;;;;;4.10;3.80;;;26.20;99.90;;;-141.84;47.76;20820.00;5072271;28;20230;-61
2022/06/25 09:15:46;;;;;;;5.32;4.82;;;26.30;99.90;;;-141.84;46.06;20956.19;5070626;28;20217;-59
2022/06/25 09:18:16;;;;;;;4.47;4.07;;;26.80;99.90;;;-141.84;46.83;20935.88;5071711;28;20224;-60
2022/06/25 09:21:02;;;;;;;4.60;4.30;;;26.90;99.90;;;-141.84;44.59;21041.56;5072276;28;20224;-59
2022/06/25 09:23:33;;;;;;;4.80;4.40;;;27.00;99.90;;;-141.84;45.13;20964.31;5063593;28;20220;-60
2022/06/25 09:26:07;;;;;;;3.90;3.70;;;26.90;99.90;;;-141.84;46.52;20907.41;5071533;28;20256;-60
2022/06/25 09:28:40;;;;;;;3.92;3.63;;;26.70;99.90;;;-141.84;47.62;20822.03;5071796;28;20231;-60
2022/06/25 09:31:08;;;;;;;4.28;3.90;;;26.60;99.90;;;-141.84;49.09;20702.09;5072949;28;20232;-60
2022/06/25 09:33:41;;;;;;;4.07;3.67;;;26.20;99.90;;;-141.84;49.96;20663.47;5070986;28;20278;-59
2022/06/25 09:36:10;;;;;;;4.53;4.10;;;25.90;99.90;;;-141.84;50.47;20639.06;5060119;28;20247;-58
2022/06/25 09:38:50;;;;;;;5.25;3.53;;;25.80;99.90;;;-141.84;50.76;20590.28;5065238;28;20221;-60
2022/06/25 09:41:18;;;;;;;3.85;3.55;;;25.70;99.90;;;-141.84;50.95;20630.94;5075380;28;20499;-61
2022/06/25 09:43:48;;;;;;;4.00;3.67;;;25.70;99.90;;;-141.84;50.65;20584.19;5091736;28;20239;-60
2022/06/25 09:46:16;;;;;;;3.80;3.50;;;25.60;99.90;;;-141.84;50.92;20602.47;5074266;28;20220;-61
2022/06/25 09:48:46;;;;;;;4.30;3.45;;;25.40;99.90;;;-141.84;50.71;20600.44;5071455;28;20248;-59
2022/06/25 09:51:19;;;;;;;3.63;3.33;;;25.50;99.90;;;-141.84;51.21;20598.41;5072293;28;20239;-60
2022/06/25 09:53:51;;;;;;;3.33;3.13;;;25.40;99.90;;;-141.84;51.25;20551.66;5070187;28;20228;-62
2022/06/25 09:56:21;;;;;;;3.63;3.33;;;25.40;99.90;;;-141.84;50.40;20632.97;5071645;28;20723;-60
2022/06/25 09:58:53;;;;;;;4.05;3.25;;;25.40;99.90;;;-141.84;50.44;20604.50;5071554;28;20238;-60
2022/06/25 10:01:25;;;;;;;4.53;3.42;;;25.40;99.90;;;-141.84;50.31;20582.16;5072022;28;20193;-60
2022/06/25 10:03:54;;;;;;;3.85;3.60;;;25.30;99.90;;;-141.84;50.21;20574.00;5071438;28;20228;-61
2022/06/25 10:06:24;;;;;;;3.65;3.35;;;25.20;99.90;;;-141.84;50.48;20531.31;5068762;28;20319;-60
2022/06/25 10:08:57;;;;;;;3.63;3.40;;;25.10;99.90;;;-141.84;50.14;20545.56;5058234;28;20309;-60
2022/06/25 10:11:29;;;;;;;4.03;3.63;;;25.10;99.90;;;-141.84;49.83;20590.28;5062281;28;20249;-59
2022/06/25 10:13:58;;;;;;;5.72;3.67;;;25.30;99.90;;;-141.84;48.69;20663.47;5057483;28;20356;-63
2022/06/25 10:16:29;;;;;;;3.65;3.35;;;25.50;99.90;;;-141.84;49.26;20708.19;5053749;28;20204;-60
2022/06/25 10:19:01;;;;;;;3.53;3.33;;;25.70;99.90;;;-141.84;47.07;20773.22;5069691;28;20221;-60
2022/06/25 10:21:29;;;;;;;3.90;3.55;;;25.90;99.90;;;-141.84;47.68;20740.69;5068510;28;20245;-61
2022/06/25 10:24:04;;;;;;;4.82;3.47;;;26.00;99.90;;;-141.84;47.20;20767.13;5061378;28;20236;-61
2022/06/25 10:26:34;;;;;;;3.25;3.05;;;26.20;99.90;;;-141.84;44.81;20899.28;5051006;28;20232;-60
2022/06/25 10:29:22;;;;;;;4.30;3.40;;;26.30;99.90;;;-141.84;46.19;20822.03;5053125;28;20232;-59